Time;durP1;ratioP1;P1;durP2;ratioP2;P2;SDS_P1;SDS_P2;PMS_P1;PMS_P2;Temp;Humidity;BMP_temperature;BMP_pressure;BME280_temperature;BME280_humidity;BME280_pressure;Samples;Min_cycle;Max_cycle;Signal;HPM_P1;HPM_P2
2023/02/16 00:00:41;;;;;;;151.27;50.78;;;;;;;;;;6311065;22;20007;-91
2023/02/16 00:03:16;;;;;;;131.77;49.63;;;;;;;;;;6313439;22;20010;-92
2023/02/16 00:05:43;;;;;;;205.35;65.47;;;;;;;;;;6310898;22;20014;-92
2023/02/16 00:08:10;;;;;;;182.45;62.38;;;;;;;;;;6312791;22;20013;-92
2023/02/16 00:10:38;;;;;;;156.80;55.47;;;;;;;;;;6310829;22;20093;-92
2023/02/16 00:16:29;;;;;;;158.00;51.30;;;;;;;;;;6339943;22;20028;-92
2023/02/16 00:18:56;;;;;;;152.10;49.83;;;;;;;;;;6311820;22;20006;-91
2023/02/16 00:21:23;;;;;;;132.68;48.60;;;;;;;;;;6312089;22;20010;-92
2023/02/16 00:23:51;;;;;;;160.35;51.40;;;;;;;;;;6310498;22;20026;-92
2023/02/16 00:26:20;;;;;;;153.15;50.90;;;;;;;;;;6312331;22;20054;-92
2023/02/16 00:28:49;;;;;;;165.63;50.80;;;;;;;;;;6311038;22;20010;-91
2023/02/16 00:31:17;;;;;;;160.90;52.53;;;;;;;;;;6312706;22;20003;-92
2023/02/16 00:33:44;;;;;;;141.82;48.88;;;;;;;;;;6310818;22;20340;-92
2023/02/16 00:36:12;;;;;;;149.10;48.53;;;;;;;;;;6313172;22;20010;-92
2023/02/16 00:38:39;;;;;;;145.77;47.65;;;;;;;;;;6310662;22;20032;-90
2023/02/16 00:41:49;;;;;;;137.00;46.50;;;;;;;;;;6312184;22;20497;-92
2023/02/16 00:43:53;;;;;;;132.13;43.53;;;;;;;;;;6337611;22;20030;-92
2023/02/16 00:46:20;;;;;;;138.23;45.75;;;;;;;;;;6312742;22;20060;-92
2023/02/16 00:48:47;;;;;;;141.65;46.03;;;;;;;;;;6310632;22;20010;-91
2023/02/16 00:51:13;;;;;;;130.82;46.33;;;;;;;;;;6311578;22;20010;-92
2023/02/16 00:53:44;;;;;;;130.30;44.78;;;;;;;;;;6310833;22;20060;-91
2023/02/16 00:56:12;;;;;;;122.28;43.42;;;;;;;;;;6312198;22;20443;-91
2023/02/16 00:58:40;;;;;;;144.38;46.38;;;;;;;;;;6310430;22;20017;-92
2023/02/16 01:01:12;;;;;;;136.20;45.97;;;;;;;;;;6312337;22;20006;-93
2023/02/16 01:03:41;;;;;;;130.17;42.40;;;;;;;;;;6310633;22;20473;-91
2023/02/16 01:18:06;;;;;;;132.90;43.67;;;;;;;;;;6307118;22;20276;-92
2023/02/16 01:20:37;;;;;;;142.60;45.78;;;;;;;;;;6281309;22;20238;-92
2023/02/16 01:23:04;;;;;;;116.88;42.10;;;;;;;;;;6280052;22;20010;-92
2023/02/16 01:25:31;;;;;;;117.10;40.38;;;;;;;;;;6281540;22;20049;-91
2023/02/16 01:27:58;;;;;;;128.25;43.92;;;;;;;;;;6279618;22;20007;-90
2023/02/16 01:30:25;;;;;;;114.20;41.38;;;;;;;;;;6280497;22;20053;-91
2023/02/16 01:33:12;;;;;;;114.35;41.03;;;;;;;;;;6280014;22;20060;-95
2023/02/16 01:35:40;;;;;;;111.80;39.90;;;;;;;;;;6280152;22;20286;-91
2023/02/16 01:38:07;;;;;;;129.35;44.47;;;;;;;;;;6280083;22;20088;-92
2023/02/16 01:40:34;;;;;;;126.70;45.38;;;;;;;;;;6279884;22;20078;-91
2023/02/16 01:43:22;;;;;;;130.85;43.95;;;;;;;;;;6279599;22;20003;-92
2023/02/16 01:45:59;;;;;;;127.80;44.20;;;;;;;;;;6279517;22;20011;-92
2023/02/16 01:48:31;;;;;;;130.00;43.42;;;;;;;;;;6280250;22;20014;-92
2023/02/16 01:51:06;;;;;;;125.20;43.22;;;;;;;;;;6279155;22;19999;-92
2023/02/16 01:53:39;;;;;;;130.68;42.13;;;;;;;;;;6280544;22;20007;-91
2023/02/16 01:56:13;;;;;;;120.43;42.22;;;;;;;;;;6278991;22;20409;-91
2023/02/16 01:58:45;;;;;;;121.95;42.53;;;;;;;;;;6276281;22;20007;-90
2023/02/16 02:01:21;;;;;;;132.85;41.80;;;;;;;;;;6278640;22;20074;-91
2023/02/16 02:06:52;;;;;;;123.25;38.35;;;;;;;;;;6306653;22;20046;-92
2023/02/16 02:09:35;;;;;;;122.20;39.22;;;;;;;;;;6277107;22;20007;-92
2023/02/16 02:12:06;;;;;;;125.68;40.28;;;;;;;;;;6279625;22;20003;-91
2023/02/16 02:14:38;;;;;;;112.47;38.65;;;;;;;;;;6279376;22;20007;-91
2023/02/16 02:17:09;;;;;;;111.20;38.30;;;;;;;;;;6280324;22;20475;-91
2023/02/16 02:19:41;;;;;;;117.97;41.35;;;;;;;;;;6279189;22;20090;-91
2023/02/16 02:24:59;;;;;;;119.07;41.00;;;;;;;;;;6305656;22;20010;-92
2023/02/16 02:27:27;;;;;;;129.02;42.97;;;;;;;;;;6280075;22;20011;-92
2023/02/16 02:30:03;;;;;;;104.18;37.13;;;;;;;;;;6278829;22;20090;-92
2023/02/16 02:32:36;;;;;;;124.75;40.03;;;;;;;;;;6280342;22;20090;-92
2023/02/16 02:35:22;;;;;;;124.20;39.70;;;;;;;;;;6278340;22;20052;-91
2023/02/16 02:38:07;;;;;;;101.90;36.80;;;;;;;;;;6279985;22;20010;-91
2023/02/16 02:40:53;;;;;;;105.88;36.05;;;;;;;;;;6279194;22;20014;-96
2023/02/16 02:43:39;;;;;;;98.57;35.15;;;;;;;;;;6278769;22;20424;-92
2023/02/16 02:46:08;;;;;;;100.63;35.38;;;;;;;;;;6280432;22;20447;-92
2023/02/16 02:48:35;;;;;;;108.25;36.97;;;;;;;;;;6278406;22;20046;-91
2023/02/16 02:51:30;;;;;;;115.55;37.80;;;;;;;;;;6280386;22;20018;-91
2023/02/16 03:02:18;;;;;;;112.28;38.13;;;;;;;;;;6307323;22;20056;-92
2023/02/16 03:04:46;;;;;;;125.28;39.75;;;;;;;;;;6279789;22;19999;-92
2023/02/16 03:07:14;;;;;;;114.97;40.05;;;;;;;;;;6279396;22;20017;-92
2023/02/16 03:09:41;;;;;;;123.30;41.80;;;;;;;;;;6279659;22;20054;-93
2023/02/16 03:14:56;;;;;;;125.10;41.05;;;;;;;;;;6307689;22;20467;-93
2023/02/16 03:31:22;;;;;;;112.07;37.55;;;;;;;;;;6308634;22;20014;-92
2023/02/16 03:33:53;;;;;;;109.68;38.00;;;;;;;;;;6273277;22;20018;-94
2023/02/16 03:36:21;;;;;;;112.50;38.53;;;;;;;;;;6281176;22;20003;-92
2023/02/16 03:38:49;;;;;;;115.45;38.97;;;;;;;;;;6281192;22;20094;-92
2023/02/16 03:41:16;;;;;;;102.10;35.90;;;;;;;;;;6280888;22;20010;-93
2023/02/16 03:43:43;;;;;;;113.25;38.00;;;;;;;;;;6281430;22;20444;-92
2023/02/16 03:46:12;;;;;;;117.50;38.28;;;;;;;;;;6280319;22;20043;-92
2023/02/16 03:48:39;;;;;;;106.78;36.58;;;;;;;;;;6281637;22;20086;-92
2023/02/16 03:51:06;;;;;;;107.97;35.40;;;;;;;;;;6281137;22;20003;-93
2023/02/16 03:53:33;;;;;;;109.07;35.97;;;;;;;;;;6281434;22;20007;-92
2023/02/16 03:56:00;;;;;;;114.55;38.03;;;;;;;;;;6280248;22;20012;-92
2023/02/16 03:58:28;;;;;;;123.05;40.20;;;;;;;;;;6281647;22;20015;-92
2023/02/16 04:00:55;;;;;;;111.15;37.92;;;;;;;;;;6279867;22;20104;-93
2023/02/16 04:03:22;;;;;;;127.15;39.65;;;;;;;;;;6281812;22;19999;-92
2023/02/16 04:05:49;;;;;;;134.98;42.15;;;;;;;;;;6280309;22;20079;-92
2023/02/16 04:08:16;;;;;;;120.20;39.05;;;;;;;;;;6281697;22;20324;-93
2023/02/16 04:10:44;;;;;;;121.63;40.05;;;;;;;;;;6307430;22;20003;-92
2023/02/16 04:13:11;;;;;;;114.72;39.03;;;;;;;;;;6282104;22;20011;-92
2023/02/16 04:15:38;;;;;;;126.43;42.33;;;;;;;;;;6280103;22;20004;-91
2023/02/16 04:18:06;;;;;;;120.72;39.63;;;;;;;;;;6281364;22;20106;-92
2023/02/16 04:20:34;;;;;;;118.35;38.72;;;;;;;;;;6279691;22;20394;-93
2023/02/16 04:23:01;;;;;;;134.77;41.22;;;;;;;;;;6281304;22;20070;-91
2023/02/16 04:25:28;;;;;;;126.95;42.67;;;;;;;;;;6279359;22;20007;-91
2023/02/16 04:27:54;;;;;;;121.10;39.17;;;;;;;;;;6281256;22;20033;-92
2023/02/16 04:30:23;;;;;;;114.15;39.10;;;;;;;;;;6279655;22;20011;-91
2023/02/16 04:32:50;;;;;;;125.50;41.67;;;;;;;;;;6281982;22;20011;-91
2023/02/16 04:35:17;;;;;;;126.85;41.45;;;;;;;;;;6279889;22;20003;-92
2023/02/16 04:37:44;;;;;;;120.00;40.85;;;;;;;;;;6283120;22;20003;-91
2023/02/16 04:40:12;;;;;;;126.35;40.00;;;;;;;;;;6289219;22;20092;-91
2023/02/16 04:42:40;;;;;;;107.90;36.60;;;;;;;;;;6282738;22;20424;-93
2023/02/16 04:56:03;;;;;;;104.03;34.60;;;;;;;;;;6329937;22;20422;-91
2023/02/16 04:58:31;;;;;;;111.55;34.83;;;;;;;;;;6311072;22;20455;-92
2023/02/16 05:00:58;;;;;;;105.35;35.70;;;;;;;;;;6311648;22;20021;-92
2023/02/16 05:03:25;;;;;;;100.28;36.15;;;;;;;;;;6311003;22;20003;-92
2023/02/16 05:05:52;;;;;;;111.47;36.50;;;;;;;;;;6311433;22;20021;-93
2023/02/16 05:08:19;;;;;;;104.35;35.28;;;;;;;;;;6310853;22;20003;-92
2023/02/16 05:14:40;;;;;;;113.28;35.67;;;;;;;;;;6313282;22;19999;-93
2023/02/16 05:16:20;;;;;;;98.50;35.55;;;;;;;;;;6340203;22;20152;-91
2023/02/16 05:18:47;;;;;;;106.45;36.55;;;;;;;;;;6310563;22;20405;-92
2023/02/16 05:21:34;;;;;;;113.65;36.75;;;;;;;;;;6312381;22;20033;-91
2023/02/16 05:24:02;;;;;;;113.00;37.40;;;;;;;;;;6310391;22;20003;-91
2023/02/16 05:26:30;;;;;;;111.93;35.47;;;;;;;;;;6311528;22;20018;-93
2023/02/16 05:28:58;;;;;;;113.93;38.22;;;;;;;;;;6310192;22;20011;-92
2023/02/16 05:31:27;;;;;;;114.60;37.75;;;;;;;;;;6312886;22;20218;-92
2023/02/16 05:34:03;;;;;;;123.80;38.53;;;;;;;;;;6310668;22;20065;-94
2023/02/16 05:36:30;;;;;;;117.65;39.00;;;;;;;;;;6312280;22;20002;-92
2023/02/16 05:39:07;;;;;;;119.03;38.25;;;;;;;;;;6310272;22;19999;-95
2023/02/16 05:41:34;;;;;;;109.70;38.15;;;;;;;;;;6311541;22;20121;-93
2023/02/16 05:44:02;;;;;;;114.60;37.33;;;;;;;;;;6311720;22;20052;-92
2023/02/16 05:46:31;;;;;;;108.10;37.63;;;;;;;;;;6310928;22;20014;-93
2023/02/16 05:48:59;;;;;;;109.63;37.28;;;;;;;;;;6311055;22;20077;-94
2023/02/16 05:51:26;;;;;;;124.35;40.55;;;;;;;;;;6311027;22;20055;-91
2023/02/16 05:53:55;;;;;;;121.50;40.10;;;;;;;;;;6310914;22;20073;-91
2023/02/16 05:56:21;;;;;;;109.90;36.35;;;;;;;;;;6308619;22;20041;-90
2023/02/16 05:58:48;;;;;;;124.10;43.28;;;;;;;;;;6310838;22;20002;-89
2023/02/16 06:01:14;;;;;;;122.70;43.53;;;;;;;;;;6312540;22;19999;-90
2023/02/16 06:03:40;;;;;;;139.35;46.88;;;;;;;;;;6312099;22;20058;-89
2023/02/16 06:06:07;;;;;;;134.43;45.30;;;;;;;;;;6312232;22;20011;-92
2023/02/16 06:08:34;;;;;;;139.77;45.47;;;;;;;;;;6312265;22;20051;-90
2023/02/16 06:11:00;;;;;;;137.63;44.42;;;;;;;;;;6312546;22;20006;-91
2023/02/16 06:13:26;;;;;;;119.47;41.60;;;;;;;;;;6312669;22;20011;-89
2023/02/16 06:15:54;;;;;;;134.18;45.58;;;;;;;;;;6312512;22;20030;-91
2023/02/16 06:18:21;;;;;;;129.52;44.85;;;;;;;;;;6312171;22;20026;-90
2023/02/16 06:20:47;;;;;;;137.07;45.80;;;;;;;;;;6312171;22;20003;-91
2023/02/16 06:23:16;;;;;;;141.07;46.83;;;;;;;;;;6319876;22;19999;-90
2023/02/16 06:25:43;;;;;;;112.80;42.47;;;;;;;;;;6312169;22;20057;-89
2023/02/16 06:28:09;;;;;;;121.53;44.60;;;;;;;;;;6312870;22;20006;-88
2023/02/16 06:30:36;;;;;;;182.85;70.03;;;;;;;;;;6312246;22;20006;-89
2023/02/16 06:33:18;;;;;;;155.65;63.17;;;;;;;;;;6341081;22;20003;-94
2023/02/16 06:35:47;;;;;;;150.25;50.40;;;;;;;;;;6309526;22;20026;-88
2023/02/16 06:38:28;;;;;;;149.18;49.50;;;;;;;;;;6314771;22;20428;-95
2023/02/16 06:40:55;;;;;;;132.13;46.75;;;;;;;;;;6313183;22;19998;-90
2023/02/16 06:43:28;;;;;;;158.15;50.53;;;;;;;;;;6287107;22;20632;-88
2023/02/16 06:46:04;;;;;;;152.10;53.47;;;;;;;;;;6312116;22;20017;-94
2023/02/16 06:48:33;;;;;;;115.38;45.75;;;;;;;;;;6282235;22;20074;-92
2023/02/16 06:50:59;;;;;;;139.85;48.88;;;;;;;;;;6286118;22;20412;-92
2023/02/16 06:53:31;;;;;;;137.23;46.97;;;;;;;;;;6283580;22;20010;-93
2023/02/16 06:56:12;;;;;;;120.35;44.03;;;;;;;;;;6283587;22;20011;-91
2023/02/16 06:58:38;;;;;;;102.28;41.33;;;;;;;;;;6283005;22;20022;-92
2023/02/16 07:01:04;;;;;;;149.43;58.20;;;;;;;;;;6283512;22;20086;-91
2023/02/16 10:20:31;;;;;;;71.70;35.28;;;;;;;;;;6256035;22;20022;-92
2023/02/16 10:29:38;;;;;;;;;;;;;;;;;;;;;
2023/02/16 10:45:24;;;;;;;71.95;35.58;;;;;;;;;;6280207;22;20020;-96
2023/02/16 10:48:25;;;;;;;68.30;34.22;;;;;;;;;;6287772;22;20080;-95
2023/02/16 10:59:47;;;;;;;67.10;31.83;;;;;;;;;;6305579;22;20257;-94
2023/02/16 11:02:19;;;;;;;75.63;35.35;;;;;;;;;;6312745;22;19999;-95
2023/02/16 11:04:53;;;;;;;72.63;34.92;;;;;;;;;;6312206;22;20003;-95
2023/02/16 11:07:33;;;;;;;70.75;35.03;;;;;;;;;;6312356;22;20015;-95
2023/02/16 11:13:06;;;;;;;66.07;33.85;;;;;;;;;;6214302;23;20011;-95
2023/02/16 11:15:58;;;;;;;73.85;37.38;;;;;;;;;;6293093;22;20006;-93
2023/02/16 11:19:00;;;;;;;70.18;36.10;;;;;;;;;;6313316;22;20041;-95
2023/02/16 11:21:53;;;;;;;72.57;39.70;;;;;;;;;;6160378;23;20129;-94
2023/02/16 11:24:32;;;;;;;67.30;34.08;;;;;;;;;;6310611;22;20034;-93
2023/02/16 11:27:03;;;;;;;65.93;35.83;;;;;;;;;;6342977;22;20018;-93
2023/02/16 11:32:22;;;;;;;62.90;34.83;;;;;;;;;;6339241;22;20003;-95
2023/02/16 11:35:11;;;;;;;66.45;35.90;;;;;;;;;;6312835;22;20056;-95
2023/02/16 11:38:12;;;;;;;;;;;;;;;;;;;;;
2023/02/16 11:40:58;;;;;;;69.55;36.35;;;;;;;;;;6350439;22;20097;-95
2023/02/16 11:46:36;;;;;;;69.80;35.55;;;;;;;;;;6309460;22;20019;-96
2023/02/16 11:58:54;;;;;;;64.55;32.58;;;;;;;;;;6174402;23;20015;-95
2023/02/16 12:01:49;;;;;;;;;;;;;;;;;;;;;
2023/02/16 12:04:54;;;;;;;62.25;34.20;;;;;;;;;;6229161;22;20084;-95
2023/02/16 12:07:39;;;;;;;65.40;33.35;;;;;;;;;;6161204;23;20048;-95
2023/02/16 12:10:20;;;;;;;67.50;34.78;;;;;;;;;;6161926;23;20009;-96
2023/02/16 12:13:05;;;;;;;58.95;33.42;;;;;;;;;;6269875;22;20073;-95
2023/02/16 12:15:58;;;;;;;62.08;33.95;;;;;;;;;;6317676;22;20003;-96
2023/02/16 12:18:39;;;;;;;60.20;33.65;;;;;;;;;;6316643;22;20317;-94
2023/02/16 12:21:33;;;;;;;64.63;33.53;;;;;;;;;;6313720;22;20081;-94
2023/02/16 12:24:16;;;;;;;69.65;35.78;;;;;;;;;;6313822;22;20023;-95
2023/02/16 12:26:51;;;;;;;67.13;35.50;;;;;;;;;;6314495;22;20041;-93
2023/02/16 12:29:32;;;;;;;76.18;40.67;;;;;;;;;;6312738;22;19998;-94
2023/02/16 12:32:20;;;;;;;78.32;39.85;;;;;;;;;;6313335;22;20003;-93
2023/02/16 12:34:59;;;;;;;75.72;38.70;;;;;;;;;;6313361;22;20369;-94
2023/02/16 12:37:27;;;;;;;79.50;41.80;;;;;;;;;;6314093;22;20010;-96
2023/02/16 12:40:12;;;;;;;73.95;40.25;;;;;;;;;;6313648;22;20077;-93
2023/02/16 12:43:14;;;;;;;66.72;38.38;;;;;;;;;;6313695;22;20082;-94
2023/02/16 12:45:51;;;;;;;69.10;38.90;;;;;;;;;;6162374;22;20044;-96
2023/02/16 12:48:55;;;;;;;;;;;;;;;;;;;;;
2023/02/16 12:51:25;;;;;;;77.28;42.05;;;;;;;;;;6308879;22;20390;-96
2023/02/16 13:00:00;;;;;;;73.35;41.80;;;;;;;;;;6295761;22;20037;-95
2023/02/16 13:02:33;;;;;;;72.20;39.95;;;;;;;;;;6284661;22;20011;-94
2023/02/16 13:05:23;;;;;;;68.97;38.92;;;;;;;;;;6284991;22;20007;-95
2023/02/16 13:08:13;;;;;;;;;;;;;;;;;;;;;
2023/02/16 13:10:51;;;;;;;73.93;40.15;;;;;;;;;;6311504;22;20031;-93
2023/02/16 13:13:19;;;;;;;67.78;37.50;;;;;;;;;;6282455;22;20007;-93
2023/02/16 13:15:48;;;;;;;64.03;38.10;;;;;;;;;;6282446;22;20060;-94
2023/02/16 13:19:25;;;;;;;71.47;41.42;;;;;;;;;;6283428;22;20302;-95
2023/02/16 13:22:01;;;;;;;71.47;38.97;;;;;;;;;;6157217;23;20367;-93
2023/02/16 13:24:55;;;;;;;70.38;38.78;;;;;;;;;;6140495;23;20390;-92
2023/02/16 13:27:43;;;;;;;70.78;39.20;;;;;;;;;;6284925;22;20015;-95
2023/02/16 13:30:14;;;;;;;66.68;38.05;;;;;;;;;;6282043;22;20010;-94
2023/02/16 13:32:56;;;;;;;70.55;41.13;;;;;;;;;;6281693;22;20007;-94
2023/02/16 13:35:52;;;;;;;74.05;40.20;;;;;;;;;;6282256;22;20011;-96
2023/02/16 13:59:47;;;;;;;71.40;39.83;;;;;;;;;;6180487;23;20009;-95
2023/02/16 14:02:36;;;;;;;77.78;41.75;;;;;;;;;;6159751;23;20024;-95
2023/02/16 14:05:10;;;;;;;72.57;40.65;;;;;;;;;;6300777;22;20085;-95
2023/02/16 14:07:46;;;;;;;72.90;40.33;;;;;;;;;;6312728;22;20015;-96
2023/02/16 14:10:13;;;;;;;78.07;42.13;;;;;;;;;;6314037;22;20052;-95
2023/02/16 14:12:40;;;;;;;80.43;42.72;;;;;;;;;;6313941;22;20022;-96
2023/02/16 14:15:17;;;;;;;78.40;41.42;;;;;;;;;;6313249;22;19999;-94
2023/02/16 14:17:44;;;;;;;70.22;38.90;;;;;;;;;;6313895;22;20014;-94
2023/02/16 14:20:14;;;;;;;74.70;41.08;;;;;;;;;;6312642;22;20006;-94
2023/02/16 14:22:40;;;;;;;78.63;42.75;;;;;;;;;;6313605;22;20014;-95
2023/02/16 14:25:22;;;;;;;71.43;40.47;;;;;;;;;;6312657;22;20430;-94
2023/02/16 14:27:52;;;;;;;81.03;42.70;;;;;;;;;;6313100;22;20021;-95
2023/02/16 14:30:37;;;;;;;86.18;42.15;;;;;;;;;;6312647;22;20022;-93
2023/02/16 14:33:15;;;;;;;82.00;43.25;;;;;;;;;;6313091;22;20081;-93
2023/02/16 14:35:47;;;;;;;76.72;40.05;;;;;;;;;;6312851;22;20450;-95
2023/02/16 14:38:16;;;;;;;83.75;43.15;;;;;;;;;;6312996;22;20030;-95
2023/02/16 14:40:51;;;;;;;86.28;43.15;;;;;;;;;;6311963;22;20003;-94
2023/02/16 14:43:36;;;;;;;88.90;42.90;;;;;;;;;;6313568;22;20003;-94
2023/02/16 14:46:21;;;;;;;83.60;39.97;;;;;;;;;;6314117;22;20047;-94
2023/02/16 14:48:53;;;;;;;82.15;38.35;;;;;;;;;;6281150;22;20090;-94
2023/02/16 14:51:38;;;;;;;88.43;41.65;;;;;;;;;;6282494;22;20076;-93
2023/02/16 14:54:26;;;;;;;100.18;44.75;;;;;;;;;;6281702;22;20011;-96
2023/02/16 14:57:36;;;;;;;88.80;42.45;;;;;;;;;;6282661;22;20423;-94
2023/02/16 14:59:56;;;;;;;95.03;41.63;;;;;;;;;;6303818;22;20305;-94
2023/02/16 15:02:27;;;;;;;88.32;42.85;;;;;;;;;;6286651;22;20017;-94
2023/02/16 15:04:53;;;;;;;89.70;41.88;;;;;;;;;;6283790;22;20457;-95
2023/02/16 15:07:23;;;;;;;92.38;44.25;;;;;;;;;;6283718;22;20089;-95
2023/02/16 15:09:56;;;;;;;92.60;42.38;;;;;;;;;;6284930;22;19999;-96
2023/02/16 15:12:28;;;;;;;101.68;45.33;;;;;;;;;;6291027;22;20014;-96
2023/02/16 15:14:56;;;;;;;98.18;45.53;;;;;;;;;;6286786;22;20009;-94
2023/02/16 15:17:54;;;;;;;101.78;45.85;;;;;;;;;;6287857;22;20007;-95
2023/02/16 15:20:28;;;;;;;97.55;44.90;;;;;;;;;;6286535;22;20395;-96
2023/02/16 15:23:06;;;;;;;104.95;44.97;;;;;;;;;;6285064;22;20311;-96
2023/02/16 15:25:59;;;;;;;99.93;43.92;;;;;;;;;;6284575;22;20317;-96
2023/02/16 15:28:28;;;;;;;111.57;48.05;;;;;;;;;;6292858;22;20011;-95
2023/02/16 15:31:29;;;;;;;112.22;47.67;;;;;;;;;;6289652;22;20438;-95
2023/02/16 15:34:06;;;;;;;115.60;47.30;;;;;;;;;;6204864;22;20090;-95
2023/02/16 15:36:43;;;;;;;117.45;48.15;;;;;;;;;;6290343;22;19991;-96
2023/02/16 15:39:29;;;;;;;110.82;49.65;;;;;;;;;;6291572;22;20003;-94
2023/02/16 15:53:40;;;;;;;121.05;48.72;;;;;;;;;;6295551;22;20023;-95
2023/02/16 15:56:27;;;;;;;114.88;46.97;;;;;;;;;;6319731;22;20030;-93
2023/02/16 15:59:37;;;;;;;123.80;48.63;;;;;;;;;;6316041;22;20013;-96
2023/02/16 16:05:38;;;;;;;123.75;48.35;;;;;;;;;;6301062;22;20009;-96
2023/02/16 16:08:17;;;;;;;136.48;54.85;;;;;;;;;;6319340;22;20402;-96
2023/02/16 16:11:18;;;;;;;133.88;53.33;;;;;;;;;;6319338;22;20034;-96
2023/02/16 16:13:56;;;;;;;134.75;54.50;;;;;;;;;;6241965;22;20063;-96
2023/02/16 16:30:53;;;;;;;195.32;66.85;;;;;;;;;;6239839;22;20023;-95
2023/02/16 16:33:28;;;;;;;215.18;76.03;;;;;;;;;;6319862;22;20018;-96
2023/02/16 16:39:07;;;;;;;210.48;80.20;;;;;;;;;;6251599;23;20001;-95
2023/02/16 16:41:51;;;;;;;222.68;84.10;;;;;;;;;;6306685;22;20052;-95
2023/02/16 16:44:20;;;;;;;;;;;;;;;;;;6315783;22;20010;-96
2023/02/16 16:50:00;;;;;;;182.90;66.60;;;;;;;;;;6321902;22;20003;-93
2023/02/16 16:52:33;;;;;;;190.13;66.85;;;;;;;;;;6313681;22;20010;-93
2023/02/16 16:55:01;;;;;;;174.00;65.60;;;;;;;;;;6314116;22;20339;-95
2023/02/16 16:57:28;;;;;;;164.50;60.92;;;;;;;;;;6312577;22;20030;-93
2023/02/16 16:59:55;;;;;;;191.88;67.50;;;;;;;;;;6312072;22;20439;-91
2023/02/16 17:02:21;;;;;;;230.38;78.90;;;;;;;;;;6311592;22;20027;-92
2023/02/16 17:04:47;;;;;;;228.45;82.40;;;;;;;;;;6310974;22;20031;-93
2023/02/16 17:07:13;;;;;;;226.10;76.57;;;;;;;;;;6313224;22;20427;-93
2023/02/16 17:09:57;;;;;;;223.75;81.00;;;;;;;;;;6320187;22;20006;-96
2023/02/16 17:12:23;;;;;;;;;;;;;;;;;;6316812;22;20010;-93
2023/02/16 17:14:49;;;;;;;192.02;66.03;;;;;;;;;;6314345;22;20257;-94
2023/02/16 17:17:15;;;;;;;294.50;84.30;;;;;;;;;;6316428;22;20014;-94
2023/02/16 17:20:04;;;;;;;303.08;89.68;;;;;;;;;;6320261;22;20014;-93
2023/02/16 17:22:32;;;;;;;228.23;69.60;;;;;;;;;;6317620;22;19998;-96
2023/02/16 17:25:16;;;;;;;236.27;69.60;;;;;;;;;;6319683;22;20030;-95
2023/02/16 17:35:29;;;;;;;;;;;;;;;;;;;;;
2023/02/16 17:37:38;;;;;;;223.52;57.75;;;;;;;;;;6313266;22;20007;-95
2023/02/16 17:55:56;;;;;;;260.13;56.85;;;;;;;;;;6306399;22;20030;-96
2023/02/16 18:01:31;;;;;;;256.67;56.47;;;;;;;;;;6253044;22;20027;-94
2023/02/16 18:04:08;;;;;;;;;;;;;;;;;;;;;
2023/02/16 18:09:23;;;;;;;275.00;52.50;;;;;;;;;;6275572;22;20026;-94
2023/02/16 18:14:53;;;;;;;;;;;;;;;;;;6278831;22;20026;-94
2023/02/16 18:35:37;;;;;;;;;;;;;;;;;;;;;
2023/02/16 18:38:51;;;;;;;;;;;;;;;;;;;;;
2023/02/16 18:44:25;;;;;;;260.23;56.83;;;;;;;;;;6080123;23;20023;-96
2023/02/16 19:05:19;;;;;;;348.40;64.20;;;;;;;;;;6140849;23;20009;-96
2023/02/16 19:08:23;;;;;;;261.88;48.33;;;;;;;;;;6142450;23;20019;-95
2023/02/16 19:59:33;;;;;;;138.68;39.00;;;;;;;;;;6290137;22;20023;-94
2023/02/16 20:01:59;;;;;;;190.10;43.00;;;;;;;;;;6310748;22;20003;-94
2023/02/16 20:30:41;;;;;;;256.40;48.55;;;;;;;;;;6255353;22;20023;-95
2023/02/16 20:33:08;;;;;;;332.58;47.13;;;;;;;;;;6315728;22;20323;-95
2023/02/16 20:35:34;;;;;;;122.30;45.70;;;;;;;;;;6315030;22;20070;-94
2023/02/16 20:38:27;;;;;;;101.68;35.78;;;;;;;;;;6308009;22;20085;-93
2023/02/16 20:40:59;;;;;;;238.05;39.80;;;;;;;;;;6283238;22;20007;-96
2023/02/16 20:43:39;;;;;;;208.23;42.63;;;;;;;;;;6282678;22;20004;-95
2023/02/16 20:46:23;;;;;;;116.22;32.30;;;;;;;;;;6283403;22;19999;-94
2023/02/16 20:48:50;;;;;;;143.80;37.10;;;;;;;;;;6281437;22;20008;-94
2023/02/16 20:54:44;;;;;;;159.10;36.83;;;;;;;;;;6307312;22;20129;-96
2023/02/16 21:09:13;;;;;;;76.07;30.58;;;;;;;;;;6305115;22;20034;-95
2023/02/16 21:12:03;;;;;;;137.60;36.10;;;;;;;;;;6277204;22;20003;-93
2023/02/16 21:14:32;;;;;;;272.02;47.25;;;;;;;;;;6267646;22;20003;-94
